Time;durP1;ratioP1;P1;durP2;ratioP2;P2;SDS_P1;SDS_P2;PMS_P1;PMS_P2;Temp;Humidity;BMP_temperature;BMP_pressure;BME280_temperature;BME280_humidity;BME280_pressure;Samples;Min_cycle;Max_cycle;Signal;HPM_P1;HPM_P2
2023/01/20 00:01:03;;;;;;;37.10;23.92;;;0.60;99.90;;;;;;5112607;28;20404;-60
2023/01/20 00:03:31;;;;;;;40.35;24.20;;;0.60;99.90;;;;;;5112716;27;20416;-61
2023/01/20 00:05:58;;;;;;;36.22;23.17;;;0.60;99.90;;;;;;5112536;28;20419;-61
2023/01/20 00:08:25;;;;;;;38.00;23.05;;;0.60;99.90;;;;;;5112587;28;20408;-60
2023/01/20 00:10:52;;;;;;;35.67;23.70;;;0.60;99.90;;;;;;5112022;28;20420;-61
2023/01/20 00:13:18;;;;;;;37.40;22.73;;;0.60;99.90;;;;;;5112212;28;20725;-61
2023/01/20 00:15:45;;;;;;;37.30;23.42;;;0.60;99.90;;;;;;5112143;28;20429;-60
2023/01/20 00:18:12;;;;;;;38.67;22.88;;;0.60;99.90;;;;;;5112350;28;20495;-60
2023/01/20 00:20:40;;;;;;;34.95;23.17;;;0.60;99.90;;;;;;5111989;28;20905;-62
2023/01/20 00:23:07;;;;;;;36.38;23.15;;;0.50;99.90;;;;;;5112191;28;20829;-61
2023/01/20 00:25:36;;;;;;;37.80;22.90;;;0.50;99.90;;;;;;5112183;28;20499;-60
2023/01/20 00:28:03;;;;;;;35.30;23.30;;;0.50;99.90;;;;;;5116246;28;20942;-61
2023/01/20 00:30:30;;;;;;;40.05;24.20;;;0.50;99.90;;;;;;5116587;28;20783;-59
2023/01/20 00:32:57;;;;;;;37.13;22.10;;;0.50;99.90;;;;;;5116454;28;20412;-60
2023/01/20 00:35:23;;;;;;;38.88;22.70;;;0.50;99.90;;;;;;5116136;28;20518;-61
2023/01/20 00:37:52;;;;;;;37.10;22.17;;;0.50;99.90;;;;;;5116155;28;21004;-61
2023/01/20 00:40:18;;;;;;;33.33;21.42;;;0.50;99.90;;;;;;5116314;28;20756;-60
2023/01/20 00:42:45;;;;;;;37.90;23.63;;;0.50;99.90;;;;;;5116115;27;20481;-61
2023/01/20 00:45:12;;;;;;;35.80;22.75;;;0.50;99.90;;;;;;5116316;28;20407;-60
2023/01/20 00:47:39;;;;;;;37.85;22.50;;;0.40;99.90;;;;;;5116058;28;20499;-61
2023/01/20 00:50:06;;;;;;;36.92;23.10;;;0.40;99.90;;;;;;5115875;28;20418;-60
2023/01/20 00:52:33;;;;;;;38.10;22.98;;;0.40;99.90;;;;;;5116022;28;20412;-61
2023/01/20 00:55:01;;;;;;;36.58;22.60;;;0.40;99.90;;;;;;5116649;28;20909;-61
2023/01/20 00:57:28;;;;;;;38.45;22.90;;;0.40;99.90;;;;;;5115896;28;20427;-61
2023/01/20 00:59:55;;;;;;;40.83;21.95;;;0.40;99.90;;;;;;5116686;28;20419;-61
2023/01/20 01:02:22;;;;;;;39.03;23.48;;;0.40;99.90;;;;;;5116822;28;20415;-60
2023/01/20 01:04:50;;;;;;;37.67;23.25;;;0.30;99.90;;;;;;5116643;28;20412;-60
2023/01/20 01:07:17;;;;;;;37.58;22.63;;;0.30;99.90;;;;;;5116053;28;20412;-62
2023/01/20 01:09:44;;;;;;;38.47;23.15;;;0.30;99.90;;;;;;5117056;28;20505;-60
2023/01/20 01:12:12;;;;;;;38.03;24.35;;;0.30;99.90;;;;;;5115990;28;20408;-59
2023/01/20 01:14:39;;;;;;;39.38;24.00;;;0.20;99.90;;;;;;5115188;28;20411;-61
2023/01/20 01:17:06;;;;;;;38.58;23.65;;;0.20;99.90;;;;;;5115221;28;20427;-59
2023/01/20 01:19:33;;;;;;;43.38;23.85;;;0.20;99.90;;;;;;5116117;28;20443;-61
2023/01/20 01:21:59;;;;;;;42.72;24.05;;;0.20;99.90;;;;;;5115589;28;20427;-60
2023/01/20 01:24:26;;;;;;;40.50;24.35;;;0.20;99.90;;;;;;5115420;28;20909;-59
2023/01/20 01:26:54;;;;;;;42.13;23.67;;;0.10;99.90;;;;;;5115062;28;20475;-60
2023/01/20 01:29:22;;;;;;;39.17;24.20;;;0.10;99.90;;;;;;5115275;28;20412;-60
2023/01/20 01:31:49;;;;;;;37.75;22.92;;;0.10;99.90;;;;;;5115819;28;20416;-59
2023/01/20 01:34:16;;;;;;;37.58;23.83;;;0.10;99.90;;;;;;5115355;28;20412;-61
2023/01/20 01:36:42;;;;;;;40.03;23.93;;;0.10;99.90;;;;;;5115062;28;20452;-61
2023/01/20 01:39:09;;;;;;;38.72;22.65;;;0.10;99.90;;;;;;5114502;27;20407;-61
2023/01/20 01:41:36;;;;;;;38.20;23.03;;;0.10;99.90;;;;;;5115090;28;20507;-60
2023/01/20 01:44:06;;;;;;;38.65;23.15;;;0.10;99.90;;;;;;5114660;28;20909;-60
2023/01/20 01:46:35;;;;;;;37.33;22.13;;;0.10;99.90;;;;;;5114981;28;20414;-60
2023/01/20 01:49:06;;;;;;;38.22;24.05;;;0.10;99.90;;;;;;5114872;28;20416;-60
2023/01/20 01:51:37;;;;;;;38.65;23.33;;;0.10;99.90;;;;;;5115690;28;20408;-61
2023/01/20 01:54:09;;;;;;;40.00;22.23;;;0.00;99.90;;;;;;5115097;28;20435;-61
2023/01/20 01:56:37;;;;;;;39.40;23.40;;;0.00;99.90;;;;;;5114589;28;20425;-60
2023/01/20 01:59:05;;;;;;;40.75;23.17;;;0.10;99.90;;;;;;5114619;28;20409;-60
2023/01/20 02:01:36;;;;;;;38.72;22.77;;;0.00;99.90;;;;;;5114451;28;20407;-61
2023/01/20 02:04:07;;;;;;;41.72;22.80;;;0.10;99.90;;;;;;5114329;27;20415;-60
2023/01/20 02:06:36;;;;;;;40.53;23.23;;;0.10;99.90;;;;;;5114367;27;20408;-60
2023/01/20 02:09:04;;;;;;;33.15;21.67;;;0.10;99.90;;;;;;5114257;28;20407;-61
2023/01/20 02:11:35;;;;;;;35.78;21.23;;;0.10;99.90;;;;;;5114083;28;20420;-60
2023/01/20 02:14:02;;;;;;;37.05;21.80;;;0.10;99.90;;;;;;5114123;28;20416;-60
2023/01/20 02:16:39;;;;;;;37.40;22.40;;;0.10;99.90;;;;;;5114106;28;20428;-60
2023/01/20 02:19:24;;;;;;;34.55;21.38;;;0.10;99.90;;;;;;5114381;28;20419;-61
2023/01/20 02:22:12;;;;;;;38.87;22.70;;;0.10;99.90;;;;;;5114327;28;20426;-59
2023/01/20 02:25:20;;;;;;;34.42;20.75;;;0.00;99.90;;;;;;5114021;28;20775;-61
2023/01/20 02:28:20;;;;;;;35.50;22.67;;;0.10;99.90;;;;;;5114310;28;20400;-60
2023/01/20 02:31:34;;;;;;;35.42;22.30;;;0.00;99.90;;;;;;5103557;28;20899;-60
2023/01/20 02:34:08;;;;;;;39.92;22.85;;;0.00;99.90;;;;;;5077335;28;20412;-59
2023/01/20 02:36:42;;;;;;;37.05;21.10;;;0.00;99.90;;;;;;5114084;28;20435;-60
2023/01/20 02:39:15;;;;;;;35.65;21.95;;;0.00;99.90;;;;;;5114004;28;20416;-60
2023/01/20 02:41:51;;;;;;;38.15;22.60;;;0.00;99.90;;;;;;5114061;28;20419;-59
2023/01/20 02:44:25;;;;;;;37.05;21.08;;;-0.10;99.90;;;;;;5113863;28;20430;-61
2023/01/20 02:46:59;;;;;;;37.20;22.13;;;-0.10;99.90;;;;;;5113402;28;20412;-61
2023/01/20 02:49:32;;;;;;;40.45;22.10;;;-0.10;99.90;;;;;;5112549;28;20412;-61
2023/01/20 02:52:05;;;;;;;36.67;21.98;;;-0.10;99.90;;;;;;5113572;28;20412;-61
2023/01/20 02:54:35;;;;;;;35.20;20.70;;;-0.10;99.90;;;;;;5113535;28;20856;-60
2023/01/20 02:57:03;;;;;;;38.70;21.75;;;-0.20;99.90;;;;;;5113559;28;20419;-60
2023/01/20 02:59:33;;;;;;;39.88;22.33;;;-0.20;99.90;;;;;;5113650;28;20477;-60
2023/01/20 03:02:04;;;;;;;38.77;22.10;;;-0.20;99.90;;;;;;5113312;28;20455;-60
2023/01/20 03:04:37;;;;;;;36.50;21.40;;;-0.20;99.90;;;;;;5113576;28;20484;-60
2023/01/20 03:07:05;;;;;;;38.92;22.90;;;-0.20;99.90;;;;;;5113460;28;20404;-60
2023/01/20 03:09:37;;;;;;;41.83;22.45;;;-0.20;99.90;;;;;;5113080;28;20418;-60
2023/01/20 03:12:10;;;;;;;39.88;21.90;;;-0.30;99.90;;;;;;5113453;28;20404;-61
2023/01/20 03:14:37;;;;;;;39.00;22.08;;;-0.30;99.90;;;;;;5113067;28;20416;-61
2023/01/20 03:17:04;;;;;;;40.53;23.17;;;-0.30;99.90;;;;;;5113245;28;20431;-60
2023/01/20 03:19:32;;;;;;;39.10;22.40;;;-0.30;99.90;;;;;;5113199;28;20779;-60
2023/01/20 03:21:59;;;;;;;40.45;23.63;;;-0.30;99.90;;;;;;5113105;28;20763;-62
2023/01/20 03:24:29;;;;;;;40.78;22.35;;;-0.40;99.90;;;;;;5112859;28;20408;-62
2023/01/20 03:26:56;;;;;;;43.85;23.48;;;-0.40;99.90;;;;;;5112583;28;20809;-61
2023/01/20 03:29:23;;;;;;;44.08;24.83;;;-0.40;99.90;;;;;;5112488;28;20503;-60
2023/01/20 03:31:54;;;;;;;42.40;23.95;;;-0.50;99.90;;;;;;5112916;28;20507;-60
2023/01/20 03:34:23;;;;;;;39.85;22.30;;;-0.50;99.90;;;;;;5112748;28;20774;-60
2023/01/20 03:36:53;;;;;;;43.42;23.90;;;-0.50;99.90;;;;;;5112834;28;20428;-61
2023/01/20 03:39:20;;;;;;;40.55;24.00;;;-0.50;99.90;;;;;;5112656;28;20412;-60
2023/01/20 03:42:00;;;;;;;39.20;24.30;;;-0.60;99.90;;;;;;5112762;28;20415;-61
2023/01/20 03:44:36;;;;;;;43.28;22.33;;;-0.60;99.90;;;;;;5112985;28;20412;-62
2023/01/20 03:47:13;;;;;;;39.20;22.70;;;-0.70;99.90;;;;;;5112916;28;20416;-62
2023/01/20 03:49:46;;;;;;;36.90;22.75;;;-0.70;99.90;;;;;;5112740;28;20431;-61
2023/01/20 03:52:22;;;;;;;38.53;22.77;;;-0.70;99.90;;;;;;5112864;28;20503;-61
2023/01/20 03:54:54;;;;;;;39.35;23.40;;;-0.70;99.90;;;;;;5112792;28;20771;-61
2023/01/20 03:57:26;;;;;;;39.95;22.92;;;-0.80;99.90;;;;;;5112533;28;20428;-60
2023/01/20 03:59:54;;;;;;;42.00;23.27;;;-0.70;99.90;;;;;;5112620;28;20412;-61
2023/01/20 04:02:23;;;;;;;41.92;23.38;;;-0.70;99.90;;;;;;5111848;28;20412;-60
2023/01/20 04:04:52;;;;;;;42.20;24.00;;;-0.80;99.90;;;;;;5111979;28;20887;-61
2023/01/20 04:07:23;;;;;;;39.95;23.13;;;-0.80;99.90;;;;;;5111963;28;20400;-60
2023/01/20 04:11:14;;;;;;;41.05;22.20;;;-0.80;99.90;;;;;;5162221;27;20366;-62
2023/01/20 04:13:41;;;;;;;41.60;22.60;;;-0.80;99.90;;;;;;5132740;27;20433;-62
2023/01/20 04:16:13;;;;;;;37.08;21.38;;;-0.80;99.90;;;;;;5130664;27;20887;-61
2023/01/20 04:18:42;;;;;;;38.60;21.35;;;-0.80;99.90;;;;;;5132573;27;20898;-60
2023/01/20 04:21:12;;;;;;;38.72;20.92;;;-0.80;99.90;;;;;;5133388;27;20457;-61
2023/01/20 04:23:42;;;;;;;40.72;22.13;;;-0.80;99.90;;;;;;5154160;22;20407;-63
2023/01/20 04:26:08;;;;;;;42.40;22.40;;;-0.80;99.90;;;;;;5073970;28;20408;-63
2023/01/20 04:28:36;;;;;;;38.83;21.70;;;-0.80;99.90;;;;;;5073723;28;20413;-62
2023/01/20 04:31:03;;;;;;;42.75;23.75;;;-0.80;99.90;;;;;;5070991;28;20420;-64
2023/01/20 04:33:30;;;;;;;37.08;21.73;;;-0.90;99.90;;;;;;5069886;28;20416;-62
2023/01/20 04:35:57;;;;;;;40.35;23.00;;;-0.90;99.90;;;;;;5069914;28;20408;-63
2023/01/20 04:38:24;;;;;;;41.00;23.58;;;-0.90;99.90;;;;;;5069823;28;20421;-63
2023/01/20 04:40:51;;;;;;;41.03;22.65;;;-0.90;99.90;;;;;;5069005;28;20435;-62
2023/01/20 04:43:18;;;;;;;39.53;22.65;;;-0.90;99.90;;;;;;5068757;28;20899;-62
2023/01/20 04:45:46;;;;;;;43.30;22.65;;;-0.90;99.90;;;;;;5069196;28;20823;-62
2023/01/20 04:48:13;;;;;;;44.17;23.13;;;-1.00;99.90;;;;;;5069105;28;20444;-63
2023/01/20 04:50:40;;;;;;;38.55;22.50;;;-1.00;99.90;;;;;;5069243;28;20447;-63
2023/01/20 04:53:08;;;;;;;39.45;23.30;;;-1.00;99.90;;;;;;5069431;28;20408;-61
2023/01/20 04:55:35;;;;;;;41.92;23.85;;;-1.00;99.90;;;;;;5051042;28;20417;-62
2023/01/20 04:58:02;;;;;;;42.83;24.40;;;-1.00;99.90;;;;;;5077693;28;20417;-63
2023/01/20 05:00:28;;;;;;;44.33;23.75;;;-0.90;99.90;;;;;;5075732;28;20418;-63
2023/01/20 05:02:58;;;;;;;40.88;23.27;;;-0.90;99.90;;;;;;5074064;28;20423;-62
2023/01/20 05:05:25;;;;;;;41.63;22.40;;;-0.90;99.90;;;;;;5068498;28;20417;-62
2023/01/20 05:07:52;;;;;;;39.75;23.38;;;-0.90;99.90;;;;;;5070299;28;20421;-63
2023/01/20 05:10:19;;;;;;;37.15;22.17;;;-0.90;99.90;;;;;;5072548;28;20533;-61
2023/01/20 05:12:46;;;;;;;39.40;23.63;;;-0.90;99.90;;;;;;5073493;28;20434;-61
2023/01/20 05:15:13;;;;;;;38.75;22.23;;;-0.80;99.90;;;;;;5077062;28;20447;-63
2023/01/20 05:17:40;;;;;;;39.72;22.70;;;-0.80;99.90;;;;;;5071560;28;20413;-63
2023/01/20 05:20:09;;;;;;;37.33;21.92;;;-0.80;99.90;;;;;;5069912;28;20414;-64
2023/01/20 05:22:36;;;;;;;38.10;21.27;;;-0.80;99.90;;;;;;5056647;28;20413;-63
2023/01/20 05:25:03;;;;;;;34.53;21.88;;;-0.80;99.90;;;;;;5056425;28;20421;-63
2023/01/20 05:27:30;;;;;;;33.38;21.58;;;-0.80;99.90;;;;;;5056875;28;20448;-63
2023/01/20 05:29:57;;;;;;;37.78;22.70;;;-0.80;99.90;;;;;;5058007;28;20457;-63
2023/01/20 05:32:23;;;;;;;36.22;21.60;;;-0.90;99.90;;;;;;5058831;28;20496;-62
2023/01/20 05:34:50;;;;;;;38.10;22.23;;;-0.90;99.90;;;;;;5059030;28;20419;-63
2023/01/20 05:37:18;;;;;;;37.13;21.42;;;-0.90;99.90;;;;;;5057858;28;20421;-62
2023/01/20 05:39:45;;;;;;;37.58;21.95;;;-0.90;99.90;;;;;;5057551;28;20413;-62
2023/01/20 05:42:12;;;;;;;34.15;21.30;;;-0.90;99.90;;;;;;5052868;28;20942;-63
2023/01/20 05:44:39;;;;;;;36.60;20.60;;;-0.90;99.90;;;;;;5045969;28;20437;-63
2023/01/20 05:47:06;;;;;;;38.00;21.73;;;-0.90;99.90;;;;;;5048187;28;20781;-62
2023/01/20 05:49:32;;;;;;;37.22;21.60;;;-0.80;99.90;;;;;;5054330;28;20430;-64
2023/01/20 05:51:59;;;;;;;37.50;21.83;;;-0.80;99.90;;;;;;5044210;28;20760;-62
2023/01/20 05:54:27;;;;;;;34.08;20.38;;;-0.70;99.90;;;;;;5037303;28;20419;-63
2023/01/20 05:56:54;;;;;;;35.23;20.30;;;-0.60;99.90;;;;;;5041305;28;20530;-63
2023/01/20 05:59:22;;;;;;;31.33;20.50;;;-0.60;99.90;;;;;;5048551;28;20437;-63
2023/01/20 06:01:49;;;;;;;33.97;21.63;;;-0.50;99.90;;;;;;5040933;28;20442;-64
2023/01/20 06:04:16;;;;;;;36.20;20.02;;;-0.50;99.90;;;;;;5053087;28;20801;-63
2023/01/20 06:06:43;;;;;;;38.55;22.15;;;-0.50;99.90;;;;;;5052834;28;20444;-63
2023/01/20 06:09:09;;;;;;;34.13;21.40;;;-0.60;99.90;;;;;;5036793;28;20518;-63
2023/01/20 06:11:38;;;;;;;34.63;21.48;;;-0.60;99.90;;;;;;5040904;28;20912;-63
2023/01/20 06:14:05;;;;;;;40.15;22.85;;;-0.60;99.90;;;;;;5054479;28;20413;-63
2023/01/20 06:16:32;;;;;;;38.03;22.38;;;-0.60;99.90;;;;;;5053402;28;20429;-63
2023/01/20 06:18:58;;;;;;;36.03;22.17;;;-0.60;99.90;;;;;;5053930;28;20429;-63
2023/01/20 06:21:25;;;;;;;37.58;21.88;;;-0.60;99.90;;;;;;5054978;28;20413;-63
2023/01/20 06:23:53;;;;;;;36.60;21.40;;;-0.60;99.90;;;;;;5037459;28;20446;-63
2023/01/20 06:26:20;;;;;;;36.28;22.20;;;-0.50;99.90;;;;;;5043228;28;20437;-63
2023/01/20 06:28:48;;;;;;;34.30;21.75;;;-0.50;99.90;;;;;;5043902;28;20419;-63
2023/01/20 06:31:16;;;;;;;34.50;21.65;;;-0.40;99.90;;;;;;5034096;28;20434;-62
2023/01/20 06:33:43;;;;;;;35.05;21.58;;;-0.30;99.90;;;;;;5049911;28;20433;-63
2023/01/20 06:36:12;;;;;;;37.47;22.00;;;-0.20;99.90;;;;;;5049752;28;20769;-63
2023/01/20 06:38:39;;;;;;;37.05;22.00;;;-0.20;99.90;;;;;;5049209;28;20903;-63
2023/01/20 06:41:09;;;;;;;35.38;22.80;;;-0.10;99.90;;;;;;5041706;28;20789;-63
2023/01/20 06:43:38;;;;;;;35.25;22.35;;;0.00;99.90;;;;;;5050104;28;20433;-63
2023/01/20 06:46:10;;;;;;;38.83;22.95;;;0.00;99.90;;;;;;5052109;28;20433;-63
2023/01/20 06:48:37;;;;;;;35.45;22.25;;;0.10;99.90;;;;;;5049594;28;20952;-63
2023/01/20 06:51:06;;;;;;;35.13;21.77;;;0.10;99.90;;;;;;5047356;28;20803;-63
2023/01/20 06:53:33;;;;;;;40.25;23.08;;;0.20;99.90;;;;;;5034215;28;20414;-64
2023/01/20 06:56:01;;;;;;;38.78;23.73;;;0.20;99.90;;;;;;5033883;28;20438;-63
2023/01/20 06:58:30;;;;;;;35.67;22.92;;;0.30;99.90;;;;;;5034769;28;20752;-64
2023/01/20 07:00:57;;;;;;;38.72;22.45;;;0.30;99.90;;;;;;5034248;28;20431;-63
2023/01/20 07:03:26;;;;;;;37.83;23.23;;;0.30;99.90;;;;;;5034942;28;20418;-62
2023/01/20 07:05:57;;;;;;;36.88;23.08;;;0.30;99.90;;;;;;5036236;28;20834;-63
2023/01/20 07:08:24;;;;;;;40.38;23.60;;;0.40;99.90;;;;;;5036219;28;20501;-64
2023/01/20 07:10:51;;;;;;;37.20;22.95;;;0.40;99.90;;;;;;5040809;28;20431;-63
2023/01/20 07:13:17;;;;;;;41.13;22.92;;;0.40;99.90;;;;;;5054633;28;20436;-62
2023/01/20 07:15:44;;;;;;;39.67;23.48;;;0.30;99.90;;;;;;5053947;28;20455;-63
2023/01/20 07:18:11;;;;;;;43.00;25.02;;;0.30;99.90;;;;;;5052510;28;20865;-64
2023/01/20 07:20:39;;;;;;;39.63;23.75;;;0.20;99.90;;;;;;5054099;28;20429;-64
2023/01/20 07:23:06;;;;;;;39.13;24.40;;;0.20;99.90;;;;;;5054492;28;20449;-63
2023/01/20 07:25:33;;;;;;;36.88;22.83;;;0.20;99.90;;;;;;5053836;28;20453;-63
2023/01/20 07:28:00;;;;;;;38.60;23.73;;;0.10;99.90;;;;;;5053243;28;20521;-63
2023/01/20 07:30:27;;;;;;;39.63;24.80;;;0.10;99.90;;;;;;5054249;28;20474;-62
2023/01/20 07:32:54;;;;;;;43.30;24.98;;;0.20;99.90;;;;;;5053355;28;20436;-62
2023/01/20 07:35:21;;;;;;;40.60;23.38;;;0.20;99.90;;;;;;5050289;28;20917;-63
2023/01/20 07:37:49;;;;;;;38.00;23.00;;;0.20;99.90;;;;;;5053635;28;20423;-62
2023/01/20 07:40:16;;;;;;;40.10;25.47;;;0.30;99.90;;;;;;5052247;28;20414;-63
2023/01/20 07:42:43;;;;;;;38.17;24.23;;;0.30;99.90;;;;;;5052809;28;20429;-63
2023/01/20 07:45:10;;;;;;;39.03;24.33;;;0.40;99.90;;;;;;5049658;28;20432;-64
2023/01/20 07:47:37;;;;;;;40.95;26.25;;;0.40;99.90;;;;;;5049795;28;20509;-63
2023/01/20 07:50:05;;;;;;;42.45;25.25;;;0.40;99.90;;;;;;5044129;28;20429;-63
2023/01/20 07:52:31;;;;;;;40.30;25.98;;;0.40;99.90;;;;;;5033219;28;20428;-64
2023/01/20 07:54:59;;;;;;;39.60;25.30;;;0.40;99.90;;;;;;5033482;28;20415;-62
2023/01/20 07:57:28;;;;;;;40.97;25.55;;;0.40;99.90;;;;;;5053178;28;20413;-62
2023/01/20 07:59:55;;;;;;;40.63;25.23;;;0.30;99.90;;;;;;5052938;28;20413;-63
2023/01/20 08:02:22;;;;;;;44.92;25.05;;;0.30;99.90;;;;;;5052391;28;20904;-63
2023/01/20 08:04:49;;;;;;;43.25;25.92;;;0.30;99.90;;;;;;5052562;28;20472;-63
2023/01/20 08:07:16;;;;;;;40.10;26.00;;;0.30;99.90;;;;;;5041744;28;20437;-63
2023/01/20 08:09:42;;;;;;;42.80;25.45;;;0.20;99.90;;;;;;5041628;28;20422;-64
2023/01/20 08:12:10;;;;;;;43.10;25.50;;;0.30;99.90;;;;;;5032665;28;20411;-63
2023/01/20 08:14:37;;;;;;;39.83;24.88;;;0.30;99.90;;;;;;5052090;28;20421;-64
2023/01/20 08:17:04;;;;;;;40.60;24.38;;;0.40;99.90;;;;;;5040080;28;20453;-62
2023/01/20 08:19:31;;;;;;;38.58;24.65;;;0.60;99.90;;;;;;5044465;28;20943;-63
2023/01/20 08:21:57;;;;;;;39.65;25.02;;;0.60;99.90;;;;;;5051144;28;20425;-63
2023/01/20 08:24:24;;;;;;;36.65;24.38;;;0.60;99.90;;;;;;5053170;28;20919;-62
2023/01/20 08:26:51;;;;;;;36.40;23.48;;;0.60;99.90;;;;;;5052515;28;20421;-62
2023/01/20 08:29:20;;;;;;;38.05;24.33;;;0.60;99.90;;;;;;5052035;28;20957;-62
2023/01/20 08:31:46;;;;;;;37.97;24.25;;;0.70;99.90;;;;;;5052500;28;20425;-63
2023/01/20 08:34:13;;;;;;;38.30;24.45;;;0.60;99.90;;;;;;5052171;28;20429;-63
2023/01/20 08:36:41;;;;;;;39.60;25.13;;;0.70;99.90;;;;;;5051717;28;20417;-61
2023/01/20 08:39:10;;;;;;;40.85;25.23;;;0.70;99.90;;;;;;5052128;28;20444;-63
2023/01/20 08:41:39;;;;;;;38.75;24.48;;;0.80;99.90;;;;;;5052293;28;20412;-62
2023/01/20 08:44:07;;;;;;;40.05;24.45;;;0.90;99.90;;;;;;5052268;28;20488;-62
2023/01/20 08:46:36;;;;;;;41.00;24.58;;;1.00;99.90;;;;;;5052205;28;20420;-62
2023/01/20 08:49:06;;;;;;;39.47;24.63;;;1.10;99.90;;;;;;5052582;28;20978;-62
2023/01/20 08:51:33;;;;;;;36.75;23.90;;;1.20;99.90;;;;;;5052657;28;20432;-62
2023/01/20 08:54:00;;;;;;;37.15;23.83;;;1.30;99.90;;;;;;5052889;28;20417;-62
2023/01/20 08:56:28;;;;;;;34.10;22.23;;;1.30;99.90;;;;;;5055136;28;20496;-63
2023/01/20 08:58:56;;;;;;;36.22;22.10;;;1.30;99.90;;;;;;5057377;28;20424;-63
2023/01/20 09:01:25;;;;;;;38.25;23.90;;;1.30;99.90;;;;;;5056436;28;20409;-60
2023/01/20 09:03:54;;;;;;;37.63;23.70;;;1.30;99.90;;;;;;5056133;28;20413;-62
2023/01/20 09:06:21;;;;;;;34.95;23.23;;;1.30;99.90;;;;;;5055942;28;20423;-61
2023/01/20 09:08:48;;;;;;;39.33;23.70;;;1.30;99.90;;;;;;5055984;28;20425;-64
2023/01/20 09:11:18;;;;;;;34.83;22.30;;;1.40;99.90;;;;;;5055816;28;20429;-63
2023/01/20 09:13:45;;;;;;;33.60;22.02;;;1.40;99.90;;;;;;5055846;28;20407;-62
2023/01/20 09:16:13;;;;;;;35.63;22.50;;;1.40;99.90;;;;;;5055669;28;20457;-62
2023/01/20 09:18:40;;;;;;;37.13;23.40;;;1.40;99.90;;;;;;5056576;28;20451;-63
2023/01/20 09:21:09;;;;;;;32.42;21.85;;;1.40;99.90;;;;;;5054850;28;20472;-64
2023/01/20 09:23:37;;;;;;;33.22;21.75;;;1.50;99.90;;;;;;5055740;28;20417;-63
2023/01/20 09:26:06;;;;;;;32.35;20.13;;;1.60;99.90;;;;;;5056180;28;20417;-63
2023/01/20 09:28:34;;;;;;;35.95;21.58;;;1.70;99.90;;;;;;5056471;28;20417;-61
2023/01/20 09:31:03;;;;;;;34.13;22.23;;;1.80;99.90;;;;;;5055335;28;20435;-62
2023/01/20 09:33:30;;;;;;;32.63;21.15;;;1.90;99.90;;;;;;5056014;28;20413;-63
2023/01/20 09:35:58;;;;;;;31.63;21.25;;;2.10;99.90;;;;;;5056418;28;20791;-63
2023/01/20 09:44:16;;;;;;;29.17;19.27;;;2.60;99.90;;;;;;5055733;28;20405;-62
2023/01/20 09:53:03;;;;;;;28.92;19.13;;;2.70;99.90;;;;;;5056168;28;20401;-64
2023/01/20 09:55:40;;;;;;;28.17;19.73;;;2.70;99.90;;;;;;5055397;28;20889;-62
2023/01/20 09:58:13;;;;;;;25.85;18.75;;;2.80;99.90;;;;;;5055800;28;20409;-64
2023/01/20 10:00:45;;;;;;;26.60;18.43;;;2.80;99.90;;;;;;5055564;28;20410;-64
2023/01/20 10:03:17;;;;;;;27.20;19.08;;;2.80;99.90;;;;;;5055726;28;20422;-64
2023/01/20 10:05:45;;;;;;;26.73;19.02;;;2.80;99.90;;;;;;5057299;28;20928;-63
2023/01/20 10:08:19;;;;;;;28.55;19.42;;;2.80;99.90;;;;;;5055509;28;20470;-64
2023/01/20 10:10:50;;;;;;;27.53;19.30;;;2.80;99.90;;;;;;5055489;28;20889;-63
2023/01/20 10:13:23;;;;;;;32.35;21.85;;;2.70;99.90;;;;;;5055285;28;20419;-64
2023/01/20 10:15:54;;;;;;;28.73;19.57;;;2.70;99.90;;;;;;5054926;28;20424;-64
2023/01/20 10:18:29;;;;;;;29.20;19.52;;;2.70;99.90;;;;;;5055659;28;20409;-62
2023/01/20 10:21:01;;;;;;;29.13;19.13;;;2.70;99.90;;;;;;5054824;28;20434;-64
2023/01/20 10:23:34;;;;;;;28.15;18.83;;;2.70;99.90;;;;;;5054921;28;20420;-63
2023/01/20 10:26:09;;;;;;;28.98;19.23;;;2.80;99.90;;;;;;5056571;28;20413;-62
2023/01/20 10:28:40;;;;;;;32.25;19.83;;;2.80;99.90;;;;;;5055259;28;20433;-65
2023/01/20 10:31:07;;;;;;;29.63;19.20;;;2.80;99.90;;;;;;5054945;28;20444;-63
2023/01/20 10:33:37;;;;;;;29.63;19.13;;;2.80;99.90;;;;;;5055746;28;20406;-65
2023/01/20 10:36:10;;;;;;;26.50;18.92;;;2.90;99.90;;;;;;5055272;28;20425;-64
2023/01/20 10:38:51;;;;;;;29.60;19.63;;;2.90;99.90;;;;;;5055149;28;20420;-65
2023/01/20 10:41:26;;;;;;;27.48;20.00;;;2.90;99.90;;;;;;5055395;28;20421;-64
2023/01/20 10:43:53;;;;;;;27.55;18.92;;;2.90;99.90;;;;;;5055994;28;20423;-65
2023/01/20 10:46:37;;;;;;;31.23;19.85;;;3.00;99.90;;;;;;5056011;28;20417;-63
2023/01/20 10:49:27;;;;;;;28.58;19.63;;;3.10;99.90;;;;;;5055625;28;20420;-64
2023/01/20 10:52:18;;;;;;;30.38;20.17;;;3.10;99.90;;;;;;5055130;28;20440;-64
2023/01/20 10:54:53;;;;;;;25.42;17.95;;;3.20;99.90;;;;;;5054883;28;20413;-64
2023/01/20 10:57:22;;;;;;;26.27;17.67;;;3.20;99.90;;;;;;5054683;28;20413;-64
2023/01/20 10:59:51;;;;;;;25.75;18.75;;;3.30;99.90;;;;;;5055175;28;20421;-64
2023/01/20 11:02:20;;;;;;;23.90;17.02;;;3.40;99.90;;;;;;5055881;28;20421;-65
2023/01/20 11:04:54;;;;;;;27.90;18.67;;;3.40;99.90;;;;;;5064233;28;20485;-64
2023/01/20 11:07:21;;;;;;;25.60;18.23;;;3.40;99.90;;;;;;5064436;28;20425;-63
2023/01/20 11:09:48;;;;;;;23.80;16.08;;;3.40;99.90;;;;;;5064279;28;20428;-64
2023/01/20 11:12:17;;;;;;;23.98;16.48;;;3.50;99.90;;;;;;5063409;28;20427;-65
2023/01/20 11:14:46;;;;;;;25.50;16.73;;;3.50;99.90;;;;;;5062577;28;20405;-65
2023/01/20 11:17:15;;;;;;;26.02;16.42;;;3.50;99.90;;;;;;5055449;28;20497;-65
2023/01/20 11:19:48;;;;;;;19.98;14.65;;;3.50;99.90;;;;;;5054865;28;20451;-63
2023/01/20 11:22:19;;;;;;;20.50;15.75;;;3.60;99.90;;;;;;5055140;28;20409;-65
2023/01/20 11:24:47;;;;;;;23.70;17.30;;;3.60;99.90;;;;;;5055182;28;20421;-64
2023/01/20 11:27:16;;;;;;;25.45;16.40;;;3.60;99.90;;;;;;5054367;28;20889;-65
2023/01/20 11:29:49;;;;;;;24.35;15.93;;;3.70;99.90;;;;;;5054992;28;20417;-65
2023/01/20 11:32:32;;;;;;;23.98;16.48;;;3.80;99.90;;;;;;5055401;28;20425;-65
2023/01/20 11:35:00;;;;;;;21.23;15.23;;;3.90;99.90;;;;;;5053614;28;20500;-65
2023/01/20 11:37:35;;;;;;;22.67;16.35;;;3.90;99.90;;;;;;5053665;28;20435;-64
2023/01/20 11:40:17;;;;;;;21.90;15.40;;;4.10;99.90;;;;;;5055667;28;20421;-65
2023/01/20 11:42:45;;;;;;;22.30;15.77;;;4.30;99.90;;;;;;5056752;28;20448;-65
2023/01/20 11:45:26;;;;;;;20.83;15.20;;;4.50;99.90;;;;;;5059890;28;20785;-65
2023/01/20 11:48:06;;;;;;;21.60;15.90;;;4.70;99.90;;;;;;5060193;28;20491;-64
2023/01/20 11:50:36;;;;;;;21.50;15.20;;;4.80;99.10;;;;;;5059417;28;20784;-64
2023/01/20 11:53:21;;;;;;;22.20;14.68;;;5.00;99.40;;;;;;5057947;28;20447;-64
2023/01/20 11:55:55;;;;;;;19.77;14.15;;;5.30;98.80;;;;;;5058267;28;20428;-65
2023/01/20 11:58:24;;;;;;;18.92;13.95;;;5.50;98.30;;;;;;5056274;28;20409;-63
2023/01/20 12:01:00;;;;;;;24.20;15.90;;;5.60;97.30;;;;;;5058166;28;20417;-64
2023/01/20 12:04:00;;;;;;;20.80;15.45;;;5.60;95.70;;;;;;5057004;28;20413;-64
2023/01/20 12:06:29;;;;;;;19.73;14.23;;;5.60;95.10;;;;;;5056475;28;20477;-64
2023/01/20 12:09:00;;;;;;;19.65;15.02;;;5.60;95.80;;;;;;5055453;28;20428;-65
2023/01/20 12:11:32;;;;;;;20.27;14.27;;;5.60;96.00;;;;;;5056783;28;20421;-64
2023/01/20 12:14:21;;;;;;;21.50;14.80;;;5.60;95.50;;;;;;5055795;28;20419;-65
2023/01/20 12:16:59;;;;;;;21.13;16.20;;;5.50;94.70;;;;;;5054482;28;20500;-64
2023/01/20 12:19:33;;;;;;;18.75;13.65;;;5.30;94.80;;;;;;5056105;28;20418;-63
2023/01/20 12:22:09;;;;;;;18.67;13.43;;;5.20;94.40;;;;;;5055540;28;20889;-65
2023/01/20 12:27:28;;;;;;;20.98;13.65;;;4.90;95.30;;;;;;5054510;28;20396;-66
2023/01/20 12:29:58;;;;;;;19.05;13.40;;;4.90;95.70;;;;;;5057111;28;20428;-64
2023/01/20 12:32:28;;;;;;;20.48;14.00;;;4.90;95.10;;;;;;5059165;28;20940;-63
2023/01/20 12:34:55;;;;;;;17.80;13.60;;;4.90;95.60;;;;;;5060314;28;20483;-65
2023/01/20 12:37:28;;;;;;;18.97;14.17;;;4.90;95.50;;;;;;5058903;28;20998;-65
2023/01/20 12:40:08;;;;;;;20.87;13.53;;;4.80;94.80;;;;;;5058249;28;20500;-65
2023/01/20 12:43:05;;;;;;;21.95;14.80;;;4.80;95.20;;;;;;5057324;28;20436;-65
2023/01/20 12:45:53;;;;;;;20.58;14.75;;;4.90;95.70;;;;;;5059583;28;20432;-66
2023/01/20 12:48:50;;;;;;;20.65;14.95;;;5.10;95.20;;;;;;5058058;28;20443;-65
2023/01/20 12:51:32;;;;;;;21.60;14.60;;;5.30;95.80;;;;;;5058058;28;20420;-65
2023/01/20 12:54:23;;;;;;;22.58;14.25;;;5.40;94.70;;;;;;5058729;28;20488;-65
2023/01/20 12:56:59;;;;;;;21.80;15.30;;;5.30;95.10;;;;;;5061446;28;20417;-64
2023/01/20 12:59:41;;;;;;;27.63;18.23;;;5.30;95.20;;;;;;5058296;28;20968;-64
2023/01/20 13:02:37;;;;;;;83.30;51.63;;;5.30;95.00;;;;;;5057565;28;20415;-65
2023/01/20 13:05:26;;;;;;;51.40;33.20;;;5.30;95.00;;;;;;5056855;28;20413;-64